Time;durP1;ratioP1;P1;durP2;ratioP2;P2;SDS_P1;SDS_P2;PMS_P1;PMS_P2;Temp;Humidity;BMP_temperature;BMP_pressure;BME280_temperature;BME280_humidity;BME280_pressure;Samples;Min_cycle;Max_cycle;Signal;HPM_P1;HPM_P2
2021/12/25 00:00:20;;;;;;;7.68;3.15;;;1.90;99.90;;;;;;5097187;28;20037;-70
2021/12/25 00:02:46;;;;;;;7.68;3.20;;;1.90;99.90;;;;;;5083413;28;20079;-70
2021/12/25 00:05:13;;;;;;;6.82;2.90;;;1.90;99.90;;;;;;5075116;28;20083;-70
2021/12/25 00:07:38;;;;;;;8.00;3.50;;;1.80;99.90;;;;;;5083782;28;20040;-68
2021/12/25 00:10:05;;;;;;;8.60;3.17;;;1.80;99.90;;;;;;5087733;28;20098;-70
2021/12/25 00:12:32;;;;;;;8.75;3.10;;;1.80;99.90;;;;;;5072110;28;20047;-70
2021/12/25 00:14:58;;;;;;;7.75;3.35;;;1.80;99.90;;;;;;5112839;27;20048;-70
2021/12/25 00:17:26;;;;;;;7.85;2.72;;;1.80;99.90;;;;;;5078897;28;20396;-70
2021/12/25 00:19:54;;;;;;;8.48;2.78;;;1.80;99.90;;;;;;5080164;28;20514;-70
2021/12/25 00:22:21;;;;;;;8.10;2.78;;;1.80;99.90;;;;;;5084850;28;20043;-70
2021/12/25 00:24:47;;;;;;;6.43;2.27;;;1.70;99.90;;;;;;5081595;28;20062;-70
2021/12/25 00:27:39;;;;;;;7.80;2.50;;;1.70;99.90;;;;;;5076713;28;20310;-70
2021/12/25 00:35:06;;;;;;;5.35;2.28;;;1.60;99.90;;;;;;5070876;28;20068;-70
2021/12/25 00:37:32;;;;;;;6.38;2.30;;;1.50;99.90;;;;;;5071428;28;20464;-70
2021/12/25 00:39:57;;;;;;;6.80;2.53;;;1.50;99.90;;;;;;5078008;28;20447;-70
2021/12/25 00:42:23;;;;;;;4.38;1.90;;;1.40;99.90;;;;;;5085139;28;20046;-70
2021/12/25 00:44:49;;;;;;;8.40;2.60;;;1.40;99.90;;;;;;5070318;28;20081;-70
2021/12/25 00:47:15;;;;;;;9.85;2.72;;;1.40;99.90;;;;;;5082983;28;20040;-70
2021/12/25 00:49:41;;;;;;;9.32;2.45;;;1.30;99.80;;;;;;5080735;28;20044;-70
2021/12/25 00:52:06;;;;;;;5.63;2.17;;;1.30;99.70;;;;;;5118156;27;20077;-70
2021/12/25 00:54:32;;;;;;;11.02;2.53;;;1.30;99.80;;;;;;5139541;27;20126;-70
2021/12/25 00:56:58;;;;;;;15.05;2.78;;;1.30;99.80;;;;;;5117240;27;20031;-70
2021/12/25 00:59:23;;;;;;;5.90;2.25;;;1.20;99.60;;;;;;5128349;27;20039;-70
2021/12/25 01:01:49;;;;;;;7.10;2.60;;;1.20;99.60;;;;;;5122975;27;20031;-70
2021/12/25 01:04:15;;;;;;;7.93;2.92;;;1.20;99.60;;;;;;5119923;27;20624;-70
2021/12/25 01:06:40;;;;;;;5.32;2.05;;;1.20;99.50;;;;;;5123270;27;20047;-70
2021/12/25 01:09:07;;;;;;;6.50;1.90;;;1.10;99.70;;;;;;5143150;27;20046;-70
2021/12/25 01:11:35;;;;;;;6.53;2.30;;;1.10;99.60;;;;;;5111459;27;20040;-70
2021/12/25 01:14:11;;;;;;;7.57;2.22;;;1.10;99.50;;;;;;5121659;27;20047;-70
2021/12/25 01:20:16;;;;;;;5.43;1.95;;;1.00;99.20;;;;;;5120305;27;20483;-70
2021/12/25 01:41:53;;;;;;;4.28;1.75;;;0.70;98.40;;;;;;5153589;27;20542;-70
2021/12/25 01:47:46;;;;;;;8.15;2.20;;;0.60;97.90;;;;;;5121374;27;20053;-70
2021/12/25 01:49:59;;;;;;;7.40;2.08;;;0.50;97.90;;;;;;5126771;27;20043;-70
2021/12/25 01:52:30;;;;;;;3.78;1.65;;;0.50;97.60;;;;;;5120588;27;20051;-70
2021/12/25 01:55:00;;;;;;;5.72;1.50;;;0.50;97.60;;;;;;5125858;27;20638;-70
2021/12/25 01:57:28;;;;;;;6.35;1.75;;;0.50;97.40;;;;;;5117595;27;20036;-69
2021/12/25 01:59:55;;;;;;;7.45;2.05;;;0.50;97.00;;;;;;5124810;27;20049;-70
2021/12/25 02:02:21;;;;;;;8.13;1.90;;;0.40;96.50;;;;;;5121545;27;20074;-70
2021/12/25 02:04:47;;;;;;;5.18;1.65;;;0.40;96.30;;;;;;5121138;27;20510;-70
2021/12/25 02:07:13;;;;;;;6.03;1.95;;;0.30;96.30;;;;;;5124512;27;20039;-70
2021/12/25 02:09:39;;;;;;;6.07;1.50;;;0.40;96.10;;;;;;5126212;27;20112;-70
2021/12/25 02:12:05;;;;;;;4.90;1.55;;;0.30;95.90;;;;;;5121750;27;20130;-70
2021/12/25 02:14:31;;;;;;;6.72;1.92;;;0.30;95.90;;;;;;5124441;27;20035;-70
2021/12/25 02:17:07;;;;;;;5.35;1.55;;;0.20;95.90;;;;;;5122352;27;20035;-70
2021/12/25 02:19:40;;;;;;;4.63;1.70;;;0.20;95.90;;;;;;5126514;27;20055;-70
2021/12/25 02:22:08;;;;;;;6.68;1.55;;;0.20;95.70;;;;;;5117223;27;20039;-70
2021/12/25 02:24:36;;;;;;;6.93;1.60;;;0.10;95.60;;;;;;5125393;27;20050;-70
2021/12/25 02:27:02;;;;;;;;;;;0.10;95.50;;;;;;5112145;28;20052;-70
2021/12/25 02:29:28;;;;;;;5.57;1.50;;;0.10;95.60;;;;;;5125797;27;19919;-70
2021/12/25 02:31:55;;;;;;;5.93;1.70;;;0.00;96.00;;;;;;5122012;27;20497;-70
2021/12/25 02:34:20;;;;;;;4.88;1.40;;;0.00;96.10;;;;;;5128534;27;20553;-70
2021/12/25 02:36:46;;;;;;;5.85;1.80;;;0.00;95.70;;;;;;5114531;28;20127;-70
2021/12/25 02:39:12;;;;;;;4.68;1.58;;;-0.10;95.50;;;;;;5121582;27;20156;-70
2021/12/25 02:41:38;;;;;;;3.97;1.40;;;0.00;95.80;;;;;;5110186;28;20514;-70
2021/12/25 02:44:04;;;;;;;5.57;1.50;;;0.00;95.80;;;;;;5119086;27;20071;-69
2021/12/25 02:46:29;;;;;;;7.93;1.50;;;0.00;95.60;;;;;;5112637;28;20043;-70
2021/12/25 02:48:57;;;;;;;7.35;1.58;;;0.00;95.10;;;;;;5160545;27;20043;-70
2021/12/25 02:51:23;;;;;;;;;;;-0.10;94.90;;;;;;5123889;27;20058;-70
2021/12/25 02:53:48;;;;;;;4.47;1.52;;;-0.20;94.70;;;;;;5130387;27;19927;-70
2021/12/25 02:56:14;;;;;;;6.15;1.63;;;-0.20;95.60;;;;;;5111905;27;20040;-70
2021/12/25 02:58:40;;;;;;;4.18;1.50;;;-0.20;95.50;;;;;;5121405;27;20494;-70
2021/12/25 03:01:14;;;;;;;5.40;1.23;;;-0.20;95.30;;;;;;5118659;27;20047;-70
2021/12/25 03:03:40;;;;;;;4.32;1.30;;;-0.20;95.10;;;;;;5115450;27;20044;-70
2021/12/25 03:06:08;;;;;;;5.18;1.38;;;-0.20;95.30;;;;;;5127554;27;20108;-70
2021/12/25 03:08:34;;;;;;;5.00;1.25;;;-0.30;95.20;;;;;;5160612;27;20047;-70
2021/12/25 03:11:00;;;;;;;3.75;1.33;;;-0.30;95.10;;;;;;5127755;27;20393;-70
2021/12/25 03:13:43;;;;;;;4.20;1.90;;;-0.40;94.80;;;;;;5129212;27;20043;-69
2021/12/25 03:16:09;;;;;;;3.28;1.15;;;-0.40;94.80;;;;;;5128753;27;20043;-70
2021/12/25 03:18:43;;;;;;;5.45;1.13;;;-0.40;94.70;;;;;;5117437;27;20377;-70
2021/12/25 03:21:10;;;;;;;7.05;1.40;;;-0.50;94.50;;;;;;5125485;27;20039;-70
2021/12/25 03:23:37;;;;;;;4.90;1.40;;;-0.50;93.90;;;;;;5122950;27;20046;-70
2021/12/25 03:26:06;;;;;;;3.78;1.17;;;-0.60;93.80;;;;;;5157100;27;20043;-70
2021/12/25 03:28:33;;;;;;;2.63;1.00;;;-0.60;93.50;;;;;;5119337;27;20046;-70
2021/12/25 03:31:04;;;;;;;3.80;0.80;;;-0.60;93.60;;;;;;5129733;27;20497;-70
2021/12/25 03:33:31;;;;;;;3.40;1.00;;;-0.70;93.00;;;;;;5126033;27;20453;-70
2021/12/25 03:35:57;;;;;;;3.72;1.00;;;-0.70;92.60;;;;;;5109698;27;20639;-69
2021/12/25 03:38:23;;;;;;;3.58;0.90;;;-0.80;92.70;;;;;;5123515;27;20032;-70
2021/12/25 03:40:50;;;;;;;2.67;1.17;;;-0.80;92.50;;;;;;5125071;27;20126;-70
2021/12/25 03:43:17;;;;;;;2.97;1.05;;;-0.70;92.80;;;;;;5160588;27;20054;-70
2021/12/25 03:45:44;;;;;;;3.63;1.23;;;-0.80;92.60;;;;;;5128037;27;20047;-69
2021/12/25 03:48:27;;;;;;;3.78;1.20;;;-0.90;92.70;;;;;;5131016;27;20122;-69
2021/12/25 03:59:08;;;;;;;4.93;1.02;;;-0.80;92.60;;;;;;5112984;27;20051;-70
2021/12/25 04:04:21;;;;;;;1.15;0.75;;;-0.80;92.20;;;;;;5128902;27;20039;-70
2021/12/25 04:07:02;;;;;;;3.65;1.00;;;-0.80;92.10;;;;;;5118778;27;20434;-70
2021/12/25 04:09:29;;;;;;;2.28;1.02;;;-0.90;91.80;;;;;;5122614;27;20173;-70
2021/12/25 04:12:03;;;;;;;2.67;0.93;;;-0.90;91.80;;;;;;5118854;27;20136;-70
2021/12/25 04:14:30;;;;;;;2.75;0.73;;;-0.90;91.70;;;;;;5114628;27;20035;-70
2021/12/25 04:16:55;;;;;;;2.30;0.80;;;-0.90;91.70;;;;;;5127668;27;20039;-70
2021/12/25 04:19:21;;;;;;;2.60;0.88;;;-1.00;91.50;;;;;;5122392;27;20466;-69
2021/12/25 04:21:55;;;;;;;5.80;0.85;;;-1.00;91.40;;;;;;5128175;27;20728;-70
2021/12/25 04:24:21;;;;;;;4.45;1.52;;;-1.00;91.70;;;;;;5123447;27;20050;-70
2021/12/25 04:26:49;;;;;;;3.95;0.90;;;-1.00;91.40;;;;;;5127903;27;20057;-70
2021/12/25 05:04:59;;;;;;;2.83;0.98;;;-1.30;92.30;;;;;;5123195;27;20130;-70
2021/12/25 05:07:25;;;;;;;4.43;1.00;;;-1.40;92.20;;;;;;5126742;27;20062;-70
2021/12/25 05:09:50;;;;;;;1.85;0.85;;;-1.40;92.20;;;;;;5117544;27;20043;-70
2021/12/25 05:12:16;;;;;;;2.65;0.80;;;-1.50;92.20;;;;;;5123068;27;20058;-70
2021/12/25 05:14:42;;;;;;;9.70;1.20;;;-1.50;92.10;;;;;;5123211;27;20143;-70
2021/12/25 05:17:10;;;;;;;3.80;1.02;;;-1.50;92.20;;;;;;5126396;27;20043;-70
2021/12/25 05:19:36;;;;;;;3.67;1.10;;;-1.50;92.20;;;;;;5123083;27;20134;-70
2021/12/25 05:22:02;;;;;;;4.07;1.00;;;-1.60;92.10;;;;;;5118190;27;20121;-70
2021/12/25 05:24:28;;;;;;;2.17;1.17;;;-1.60;92.10;;;;;;5124956;27;20051;-70
2021/12/25 05:26:57;;;;;;;3.75;0.90;;;-1.60;92.10;;;;;;5125856;27;20085;-70
2021/12/25 05:29:26;;;;;;;2.67;1.00;;;-1.60;92.00;;;;;;5128359;27;20123;-70
2021/12/25 05:31:52;;;;;;;4.28;1.00;;;-1.70;92.10;;;;;;5122290;27;20039;-69
2021/12/25 05:34:18;;;;;;;3.47;0.90;;;-1.70;92.10;;;;;;5112628;27;20055;-70
2021/12/25 05:36:44;;;;;;;2.10;0.90;;;-1.70;92.10;;;;;;5125021;27;20043;-69
2021/12/25 05:39:12;;;;;;;2.83;1.00;;;-1.70;92.20;;;;;;5127454;27;20606;-69
2021/12/25 05:41:38;;;;;;;4.78;1.10;;;-1.70;92.30;;;;;;5119903;27;20559;-69
2021/12/25 05:44:05;;;;;;;3.85;0.90;;;-1.70;92.30;;;;;;5115770;27;20046;-70
2021/12/25 05:46:30;;;;;;;2.67;1.00;;;-1.80;92.10;;;;;;5127407;27;20054;-70
2021/12/25 05:48:56;;;;;;;5.03;0.80;;;-1.70;92.20;;;;;;5111974;27;20040;-69
2021/12/25 05:51:22;;;;;;;1.80;0.82;;;-1.80;92.20;;;;;;5123905;27;20060;-70
2021/12/25 05:53:47;;;;;;;3.67;1.25;;;-1.80;92.00;;;;;;5121546;27;20053;-69
2021/12/25 05:56:13;;;;;;;2.10;0.80;;;-1.80;92.00;;;;;;5125963;27;20108;-70
2021/12/25 05:58:39;;;;;;;3.50;1.15;;;-1.80;91.80;;;;;;5123697;27;20062;-70
2021/12/25 06:01:05;;;;;;;4.82;0.88;;;-1.80;91.80;;;;;;5125226;27;20039;-69
2021/12/25 06:03:32;;;;;;;2.43;0.80;;;-1.80;91.60;;;;;;5116815;27;20050;-70
2021/12/25 06:05:58;;;;;;;1.77;0.70;;;-1.80;91.50;;;;;;5125398;27;20043;-70
2021/12/25 06:08:24;;;;;;;3.53;1.00;;;-1.90;91.40;;;;;;5125837;27;20049;-70
2021/12/25 06:10:50;;;;;;;1.80;0.97;;;-1.80;91.40;;;;;;5124973;27;20560;-70
2021/12/25 06:13:19;;;;;;;1.80;0.75;;;-1.80;91.50;;;;;;5124038;27;20075;-70
2021/12/25 06:15:45;;;;;;;3.22;0.70;;;-1.80;91.30;;;;;;5122281;27;20041;-70
2021/12/25 06:18:12;;;;;;;2.95;0.70;;;-1.80;91.10;;;;;;5120211;27;20118;-70
2021/12/25 06:20:38;;;;;;;2.83;1.00;;;-1.90;91.00;;;;;;5120697;27;20039;-69
2021/12/25 06:23:04;;;;;;;3.17;0.95;;;-1.90;91.10;;;;;;5108149;28;20050;-70
2021/12/25 06:25:29;;;;;;;2.60;0.90;;;-1.90;91.00;;;;;;5124842;27;20043;-70
2021/12/25 06:27:55;;;;;;;5.85;1.00;;;-1.90;91.20;;;;;;5123019;27;20039;-70
2021/12/25 06:30:21;;;;;;;2.35;0.80;;;-1.90;91.10;;;;;;5114109;28;20055;-70
2021/12/25 06:32:46;;;;;;;3.03;0.80;;;-1.90;91.10;;;;;;5123570;28;20088;-70
2021/12/25 06:35:12;;;;;;;2.90;1.00;;;-1.80;91.10;;;;;;5125672;28;20088;-70
2021/12/25 06:37:45;;;;;;;2.72;0.80;;;-1.90;90.70;;;;;;5124424;28;20055;-70
2021/12/25 06:40:18;;;;;;;2.20;0.90;;;-1.90;90.60;;;;;;5113659;28;20047;-70
2021/12/25 06:42:44;;;;;;;1.52;0.80;;;-1.90;90.40;;;;;;5106987;28;20051;-69
2021/12/25 06:45:11;;;;;;;3.50;0.70;;;-2.00;90.30;;;;;;5114495;27;20039;-70
2021/12/25 06:47:37;;;;;;;3.95;1.40;;;-2.00;90.20;;;;;;5123392;28;20309;-70
2021/12/25 06:50:07;;;;;;;2.00;1.00;;;-2.00;90.10;;;;;;5124788;27;20078;-70
2021/12/25 06:52:33;;;;;;;2.92;1.13;;;-2.00;90.10;;;;;;5121456;27;20039;-70
2021/12/25 06:54:58;;;;;;;3.22;1.10;;;-2.00;89.80;;;;;;5124550;27;20047;-70
2021/12/25 06:57:24;;;;;;;1.85;1.35;;;-2.10;89.40;;;;;;5121309;27;20045;-70
2021/12/25 06:59:50;;;;;;;3.53;1.15;;;-2.10;89.60;;;;;;5125627;27;20043;-70
2021/12/25 07:02:15;;;;;;;1.90;0.80;;;-2.10;89.20;;;;;;5123900;28;20394;-70
2021/12/25 07:04:41;;;;;;;2.33;0.80;;;-2.10;88.30;;;;;;5119172;28;20043;-70
2021/12/25 07:07:06;;;;;;;3.45;1.60;;;-2.10;88.60;;;;;;5136364;27;20043;-70
2021/12/25 07:09:32;;;;;;;2.30;0.95;;;-2.10;88.40;;;;;;5147249;27;20505;-70
2021/12/25 07:11:58;;;;;;;4.10;1.48;;;-2.10;87.70;;;;;;5123464;27;20431;-70
2021/12/25 07:14:23;;;;;;;4.05;1.73;;;-2.10;87.60;;;;;;5158841;27;20126;-70
2021/12/25 07:16:49;;;;;;;4.03;1.20;;;-2.20;87.10;;;;;;5109456;28;20023;-70
2021/12/25 07:19:16;;;;;;;4.00;1.20;;;-2.20;87.20;;;;;;5153859;27;20070;-70
2021/12/25 07:21:42;;;;;;;2.13;1.10;;;-2.20;86.50;;;;;;5123400;28;20058;-70
2021/12/25 07:24:09;;;;;;;3.70;0.90;;;-2.20;86.70;;;;;;5120879;27;20046;-69
2021/12/25 07:26:36;;;;;;;1.70;1.00;;;-2.20;86.70;;;;;;5127524;27;20130;-70
2021/12/25 07:29:02;;;;;;;2.85;0.80;;;-2.20;85.70;;;;;;5124849;28;20035;-70
2021/12/25 07:31:28;;;;;;;2.63;1.00;;;-2.10;86.00;;;;;;5119711;27;20114;-69
2021/12/25 07:33:54;;;;;;;3.05;1.20;;;-2.20;85.80;;;;;;5125159;27;20179;-69
2021/12/25 07:36:19;;;;;;;3.22;1.10;;;-2.20;86.00;;;;;;5126592;27;20042;-70
2021/12/25 07:38:45;;;;;;;3.60;1.60;;;-2.10;85.90;;;;;;5126395;27;20620;-70
2021/12/25 07:41:11;;;;;;;4.13;1.50;;;-2.20;85.80;;;;;;5118887;27;20537;-70
2021/12/25 07:43:37;;;;;;;3.42;1.20;;;-2.20;85.70;;;;;;5122416;27;20051;-70
2021/12/25 07:46:03;;;;;;;3.72;1.10;;;-2.10;85.80;;;;;;5112891;27;20074;-70
2021/12/25 07:48:29;;;;;;;4.28;0.93;;;-2.20;86.20;;;;;;5118824;27;20030;-70
2021/12/25 07:50:55;;;;;;;2.63;1.00;;;-2.10;86.20;;;;;;5125081;27;20058;-70
2021/12/25 07:53:21;;;;;;;4.47;1.08;;;-2.10;86.40;;;;;;5125142;27;20486;-70
2021/12/25 07:55:47;;;;;;;4.57;1.40;;;-2.10;86.40;;;;;;5126583;27;20096;-70
2021/12/25 07:58:16;;;;;;;3.10;1.20;;;-2.20;86.00;;;;;;5124953;27;20134;-70
2021/12/25 08:00:42;;;;;;;4.00;1.27;;;-2.10;86.50;;;;;;5122427;27;20047;-70
2021/12/25 08:03:08;;;;;;;5.75;1.77;;;-2.20;86.90;;;;;;5121356;27;20051;-70
2021/12/25 08:05:34;;;;;;;3.40;0.90;;;-2.20;86.60;;;;;;5122902;27;20130;-70
2021/12/25 08:08:00;;;;;;;1.33;0.75;;;-2.20;86.60;;;;;;5126072;27;20562;-70
2021/12/25 08:10:26;;;;;;;2.05;0.80;;;-2.20;86.50;;;;;;5128558;27;20133;-70
2021/12/25 08:12:54;;;;;;;3.72;1.10;;;-2.20;86.40;;;;;;5122802;27;20047;-69
2021/12/25 08:15:22;;;;;;;3.47;1.17;;;-2.20;86.10;;;;;;5125791;27;20570;-70
2021/12/25 08:17:49;;;;;;;5.65;1.40;;;-2.20;86.90;;;;;;5128778;27;20126;-70
2021/12/25 08:20:15;;;;;;;2.75;1.17;;;-2.30;87.00;;;;;;5123605;27;20051;-70
2021/12/25 08:22:41;;;;;;;2.45;1.27;;;-2.20;86.90;;;;;;5120922;27;20043;-70
2021/12/25 08:25:10;;;;;;;6.75;1.95;;;-2.20;87.40;;;;;;5121948;27;20031;-70
2021/12/25 08:27:37;;;;;;;2.63;1.30;;;-2.10;87.20;;;;;;5124171;27;20043;-71
2021/12/25 08:30:06;;;;;;;3.13;1.13;;;-2.10;87.20;;;;;;5125736;27;20053;-72
2021/12/25 08:32:33;;;;;;;4.65;1.20;;;-2.20;87.20;;;;;;5125985;27;20714;-73
2021/12/25 08:34:58;;;;;;;3.63;1.33;;;-2.20;87.50;;;;;;5130198;27;20071;-72
2021/12/25 08:37:26;;;;;;;3.53;1.33;;;-2.10;87.50;;;;;;5121725;27;20071;-72
2021/12/25 08:39:53;;;;;;;6.13;1.30;;;-2.10;87.60;;;;;;5124189;27;20047;-73
2021/12/25 08:42:20;;;;;;;2.30;0.93;;;-2.10;88.00;;;;;;5113778;27;20046;-72
2021/12/25 08:45:30;;;;;;;7.47;1.75;;;-2.10;88.10;;;;;;5119411;27;20054;-72
2021/12/25 08:47:37;;;;;;;4.35;1.30;;;-2.10;88.00;;;;;;5113809;27;20051;-71
2021/12/25 08:50:09;;;;;;;2.42;0.88;;;-2.10;88.30;;;;;;5120939;27;20058;-72
2021/12/25 08:52:35;;;;;;;3.50;1.08;;;-2.10;87.90;;;;;;5129301;27;20501;-74
2021/12/25 08:55:01;;;;;;;2.55;1.35;;;-2.10;88.30;;;;;;5114452;27;20066;-73
2021/12/25 08:57:27;;;;;;;3.95;1.40;;;-2.10;88.30;;;;;;5113710;27;20035;-73
2021/12/25 08:59:54;;;;;;;6.63;2.50;;;-2.10;88.40;;;;;;5121898;27;20182;-72
2021/12/25 09:02:21;;;;;;;7.07;1.48;;;-2.10;88.10;;;;;;5122730;27;20071;-73
2021/12/25 09:04:49;;;;;;;3.60;1.30;;;-2.10;88.00;;;;;;5108264;28;20056;-74
2021/12/25 09:07:15;;;;;;;6.05;1.10;;;-2.10;88.00;;;;;;5123416;27;20050;-73
2021/12/25 09:09:41;;;;;;;2.30;1.27;;;-2.10;88.30;;;;;;5120735;27;20044;-71
2021/12/25 09:12:09;;;;;;;6.00;1.67;;;-2.10;89.10;;;;;;5120580;27;20117;-72
2021/12/25 09:14:36;;;;;;;3.25;1.25;;;-2.10;88.20;;;;;;5129611;27;20427;-72
2021/12/25 09:17:03;;;;;;;4.25;1.48;;;-2.10;89.00;;;;;;5127274;27;20051;-70
2021/12/25 09:19:28;;;;;;;4.90;1.10;;;-2.10;88.50;;;;;;5127508;27;20462;-70
2021/12/25 09:21:54;;;;;;;3.35;1.50;;;-2.10;88.60;;;;;;5119456;27;20054;-71
2021/12/25 09:24:20;;;;;;;4.95;1.40;;;-2.10;88.70;;;;;;5121948;27;20042;-72
2021/12/25 09:26:45;;;;;;;1.75;0.95;;;-2.00;89.20;;;;;;5126454;27;20466;-71
2021/12/25 09:29:11;;;;;;;2.22;1.58;;;-1.90;89.20;;;;;;5111874;27;20032;-71
2021/12/25 09:31:37;;;;;;;2.80;1.27;;;-1.90;89.20;;;;;;5132475;27;20089;-71
2021/12/25 09:34:02;;;;;;;3.20;1.30;;;-1.90;89.30;;;;;;5113971;27;20042;-72
2021/12/25 09:36:29;;;;;;;6.07;1.40;;;-1.90;89.10;;;;;;5110148;27;20472;-71
2021/12/25 09:38:55;;;;;;;3.95;1.25;;;-1.80;89.10;;;;;;5108973;27;20039;-71
2021/12/25 09:41:20;;;;;;;5.72;1.15;;;-1.90;88.20;;;;;;5123248;27;20044;-71
2021/12/25 09:43:48;;;;;;;3.10;1.23;;;-1.80;88.10;;;;;;5105950;28;20070;-70
2021/12/25 09:46:14;;;;;;;;;;;-1.80;88.30;;;;;;5108052;28;20052;-71
2021/12/25 09:48:40;;;;;;;3.55;0.80;;;-1.80;87.90;;;;;;5140926;27;20375;-71
2021/12/25 09:51:06;;;;;;;6.50;1.25;;;-1.80;89.00;;;;;;5140944;27;20094;-71
2021/12/25 09:53:32;;;;;;;3.35;0.98;;;-1.80;88.60;;;;;;5124975;27;20047;-74
2021/12/25 09:55:59;;;;;;;2.97;1.20;;;-1.80;88.10;;;;;;5112553;27;20405;-71
2021/12/25 09:58:25;;;;;;;4.25;1.00;;;-1.70;88.60;;;;;;5108779;27;20046;-72
2021/12/25 10:00:53;;;;;;;4.28;1.15;;;-1.70;87.90;;;;;;5116346;27;20131;-71
2021/12/25 10:03:20;;;;;;;3.45;1.10;;;-1.70;87.60;;;;;;5107096;28;20051;-71
2021/12/25 10:05:48;;;;;;;3.58;1.40;;;-1.70;88.20;;;;;;5117893;27;20035;-71
2021/12/25 10:08:20;;;;;;;3.67;1.15;;;-1.70;87.90;;;;;;5127608;27;20122;-71
2021/12/25 10:10:56;;;;;;;4.88;1.10;;;-1.60;87.50;;;;;;5125565;27;20046;-70
2021/12/25 10:13:38;;;;;;;4.22;1.13;;;-1.60;87.10;;;;;;5111186;27;20095;-71
2021/12/25 10:16:26;;;;;;;5.38;1.10;;;-1.50;86.90;;;;;;5125196;27;20375;-70
2021/12/25 10:19:10;;;;;;;2.90;0.90;;;-1.50;86.20;;;;;;5115231;27;20039;-70
2021/12/25 10:21:36;;;;;;;5.60;1.13;;;-1.50;86.50;;;;;;5118776;27;20514;-70
2021/12/25 10:24:37;;;;;;;3.03;0.80;;;-1.40;86.10;;;;;;5133207;27;20118;-70
2021/12/25 10:27:15;;;;;;;5.38;1.27;;;-1.40;85.70;;;;;;5100897;27;20154;-70
2021/12/25 10:29:41;;;;;;;4.55;1.05;;;-1.40;85.80;;;;;;5154146;27;20068;-71
2021/12/25 10:32:17;;;;;;;2.78;1.05;;;-1.40;85.70;;;;;;5109923;27;20032;-71
2021/12/25 10:34:44;;;;;;;2.25;1.00;;;-1.30;85.10;;;;;;5105560;28;20056;-71
2021/12/25 10:37:12;;;;;;;6.20;1.10;;;-1.30;84.90;;;;;;5112621;28;20039;-71
2021/12/25 10:39:38;;;;;;;5.15;1.00;;;-1.30;84.70;;;;;;5121377;27;20064;-71
2021/12/25 10:42:15;;;;;;;4.13;1.23;;;-1.20;84.40;;;;;;5128584;27;20047;-70
2021/12/25 10:44:50;;;;;;;4.45;0.95;;;-1.20;84.10;;;;;;5105852;28;20040;-69
2021/12/25 10:47:25;;;;;;;3.60;1.10;;;-1.20;84.20;;;;;;5127211;27;20392;-70
2021/12/25 10:49:58;;;;;;;1.63;0.90;;;-1.10;84.00;;;;;;5151239;27;20054;-70
2021/12/25 10:52:28;;;;;;;2.92;0.90;;;-1.10;83.20;;;;;;5121882;28;20058;-71
2021/12/25 10:54:57;;;;;;;4.18;1.00;;;-1.00;83.10;;;;;;5114293;28;20047;-71
2021/12/25 10:57:40;;;;;;;2.67;0.98;;;-1.00;82.90;;;;;;5126085;27;20043;-71
2021/12/25 11:00:11;;;;;;;2.67;0.93;;;-0.90;82.20;;;;;;5121211;28;20050;-70
2021/12/25 11:02:38;;;;;;;3.10;1.15;;;-0.90;82.70;;;;;;5109833;27;20154;-71
2021/12/25 11:05:29;;;;;;;6.28;1.35;;;-0.90;82.50;;;;;;5107877;28;20028;-69
2021/12/25 11:08:02;;;;;;;6.13;1.65;;;-0.90;82.30;;;;;;5121931;27;20118;-69
2021/12/25 11:10:29;;;;;;;3.80;0.95;;;-0.80;82.10;;;;;;5121506;27;20154;-70
2021/12/25 11:12:56;;;;;;;2.38;1.08;;;-0.80;81.50;;;;;;5121257;27;20078;-72
2021/12/25 11:15:25;;;;;;;2.60;1.10;;;-0.80;81.40;;;;;;5129064;27;20349;-70
2021/12/25 11:17:54;;;;;;;2.33;1.17;;;-0.80;82.00;;;;;;5126090;27;20096;-69
2021/12/25 11:20:37;;;;;;;2.13;0.90;;;-0.70;81.70;;;;;;5120202;27;20043;-69
2021/12/25 11:23:06;;;;;;;4.45;1.17;;;-0.70;80.90;;;;;;5130209;27;20039;-70
2021/12/25 11:25:34;;;;;;;2.60;1.35;;;-0.70;81.10;;;;;;5112035;27;20047;-71
2021/12/25 11:28:01;;;;;;;2.08;0.90;;;-0.70;80.60;;;;;;5126224;27;20050;-71
2021/12/25 11:30:32;;;;;;;3.85;1.00;;;-0.70;80.10;;;;;;5126093;27;20039;-73
2021/12/25 11:32:58;;;;;;;4.13;1.10;;;-0.70;79.20;;;;;;5111211;27;20046;-71
2021/12/25 11:35:24;;;;;;;3.42;1.33;;;-0.70;79.10;;;;;;5117087;27;20039;-72
2021/12/25 11:37:51;;;;;;;3.10;1.02;;;-0.70;78.90;;;;;;5129653;27;20601;-71
2021/12/25 11:40:19;;;;;;;5.30;1.35;;;-0.70;78.50;;;;;;5130318;27;20681;-72
2021/12/25 11:42:48;;;;;;;8.63;1.85;;;-0.70;78.20;;;;;;5129111;27;20039;-71
2021/12/25 11:45:23;;;;;;;5.38;1.83;;;-0.70;78.10;;;;;;5162810;27;20113;-72
2021/12/25 11:47:52;;;;;;;5.55;1.90;;;-0.60;78.40;;;;;;5110701;27;20055;-72
2021/12/25 11:50:20;;;;;;;3.67;1.40;;;-0.70;78.40;;;;;;5131080;27;20044;-71
2021/12/25 11:53:05;;;;;;;3.20;1.30;;;-0.60;77.90;;;;;;5125916;27;20074;-70
2021/12/25 11:58:25;;;;;;;6.10;1.85;;;-0.60;78.30;;;;;;5126980;27;20054;-72
2021/12/25 12:00:52;;;;;;;2.00;1.20;;;-0.60;77.50;;;;;;5126424;27;20114;-70
2021/12/25 12:03:36;;;;;;;2.25;1.02;;;-0.50;77.90;;;;;;5119262;27;20039;-70
2021/12/25 12:06:02;;;;;;;3.05;1.20;;;-0.60;75.90;;;;;;5160860;27;20058;-71
2021/12/25 12:08:27;;;;;;;3.47;1.13;;;-0.60;75.90;;;;;;5129166;27;20398;-74
2021/12/25 12:10:56;;;;;;;3.80;1.50;;;-0.60;75.70;;;;;;5126087;27;20573;-72
2021/12/25 12:13:29;;;;;;;2.55;1.00;;;-0.60;76.20;;;;;;5115704;27;20039;-71
2021/12/25 12:15:59;;;;;;;2.88;1.10;;;-0.50;76.40;;;;;;5113650;27;20051;-71
2021/12/25 12:18:30;;;;;;;3.70;1.27;;;-0.50;75.70;;;;;;5127076;27;20047;-71
2021/12/25 12:21:05;;;;;;;3.92;1.00;;;-0.50;75.50;;;;;;5126926;27;20054;-71
2021/12/25 12:23:54;;;;;;;3.78;0.98;;;-0.50;75.10;;;;;;5111372;27;20051;-71
2021/12/25 12:26:50;;;;;;;2.20;1.02;;;-0.50;74.10;;;;;;5116023;27;20456;-72
2021/12/25 12:29:38;;;;;;;6.40;1.45;;;-0.40;75.00;;;;;;5109571;27;20040;-73
2021/12/25 12:32:05;;;;;;;2.53;1.00;;;-0.40;75.10;;;;;;5109180;28;20087;-71
2021/12/25 12:34:34;;;;;;;5.53;1.27;;;-0.40;75.50;;;;;;5109206;28;20047;-71
2021/12/25 12:37:14;;;;;;;1.67;1.10;;;-0.40;75.60;;;;;;5109860;28;20104;-71
2021/12/25 12:39:42;;;;;;;3.53;1.08;;;-0.30;74.70;;;;;;5122673;27;20047;-71
2021/12/25 12:42:11;;;;;;;3.50;1.20;;;-0.40;74.70;;;;;;5123361;27;20527;-72
2021/12/25 12:44:37;;;;;;;5.57;1.30;;;-0.40;74.00;;;;;;5118057;27;20732;-71
2021/12/25 12:47:11;;;;;;;3.03;1.00;;;-0.40;74.20;;;;;;5123021;27;20483;-72
2021/12/25 12:49:45;;;;;;;4.90;1.40;;;-0.40;73.50;;;;;;5123097;27;20046;-72
2021/12/25 12:52:17;;;;;;;2.42;1.10;;;-0.30;73.90;;;;;;5129340;27;20046;-71
2021/12/25 12:54:50;;;;;;;2.72;0.93;;;-0.30;73.90;;;;;;5125470;27;20149;-71
2021/12/25 12:57:24;;;;;;;3.22;1.08;;;-0.30;73.10;;;;;;5128891;27;20058;-72
2021/12/25 12:59:57;;;;;;;6.38;2.35;;;-0.30;72.40;;;;;;5119154;27;20140;-71
2021/12/25 13:02:26;;;;;;;5.65;2.40;;;-0.30;72.40;;;;;;5127779;27;20139;-74
2021/12/25 13:04:57;;;;;;;5.63;1.40;;;-0.30;72.50;;;;;;5119833;27;20035;-71
2021/12/25 13:07:25;;;;;;;3.15;1.33;;;-0.30;72.50;;;;;;5127236;27;20051;-71
2021/12/25 13:10:15;;;;;;;7.88;2.63;;;-0.30;72.20;;;;;;5117657;27;20036;-74
2021/12/25 13:12:45;;;;;;;3.33;1.40;;;-0.30;72.10;;;;;;5117103;27;20071;-74
2021/12/25 13:15:18;;;;;;;3.60;1.20;;;-0.30;72.40;;;;;;5132002;27;20036;-71
2021/12/25 13:17:54;;;;;;;3.72;1.33;;;-0.30;72.30;;;;;;5124263;27;20506;-72
2021/12/25 13:20:43;;;;;;;3.65;1.40;;;-0.30;72.20;;;;;;5112761;27;20047;-72
2021/12/25 13:23:23;;;;;;;2.85;1.42;;;-0.20;71.50;;;;;;5126314;27;20055;-72
2021/12/25 13:25:59;;;;;;;2.97;1.20;;;-0.30;71.50;;;;;;5126253;27;20535;-71
2021/12/25 13:28:28;;;;;;;6.57;2.95;;;-0.30;71.80;;;;;;5109985;27;20128;-71
2021/12/25 13:31:10;;;;;;;7.55;4.60;;;-0.30;72.10;;;;;;5138071;27;20042;-71
2021/12/25 13:33:44;;;;;;;7.65;4.45;;;-0.30;72.40;;;;;;5126577;27;20350;-71
2021/12/25 13:36:12;;;;;;;5.43;2.35;;;-0.20;72.00;;;;;;5125215;27;20454;-71
2021/12/25 13:38:57;;;;;;;5.40;1.90;;;-0.20;72.50;;;;;;5113365;27;20076;-71
2021/12/25 13:41:34;;;;;;;3.33;1.70;;;-0.30;71.80;;;;;;5116254;27;20134;-72
2021/12/25 13:44:26;;;;;;;5.55;1.75;;;-0.30;71.90;;;;;;5107673;27;20129;-71
2021/12/25 13:47:01;;;;;;;5.15;2.00;;;-0.30;71.80;;;;;;5107270;28;20079;-71
2021/12/25 13:49:47;;;;;;;7.22;4.35;;;-0.30;72.20;;;;;;5142211;27;20123;-72
2021/12/25 13:52:19;;;;;;;5.63;3.72;;;-0.30;72.10;;;;;;5106426;28;20139;-71
2021/12/25 13:55:07;;;;;;;5.93;1.90;;;-0.30;71.90;;;;;;5114001;27;20122;-71
2021/12/25 13:57:35;;;;;;;4.95;1.60;;;-0.40;71.90;;;;;;5109222;27;20093;-73
2021/12/25 14:00:09;;;;;;;3.58;1.73;;;-0.40;72.20;;;;;;5117178;27;20056;-71
2021/12/25 14:02:37;;;;;;;7.90;4.13;;;-0.40;72.50;;;;;;5128599;27;20423;-71
2021/12/25 14:05:06;;;;;;;3.17;1.58;;;-0.40;73.00;;;;;;5152852;27;20066;-71
2021/12/25 14:07:31;;;;;;;2.83;1.70;;;-0.40;73.00;;;;;;5123399;27;20105;-72
2021/12/25 14:09:57;;;;;;;4.20;1.30;;;-0.40;73.20;;;;;;5128105;27;20429;-72
2021/12/25 14:12:24;;;;;;;4.05;1.92;;;-0.50;73.20;;;;;;5124686;27;20040;-69
2021/12/25 14:14:50;;;;;;;3.33;1.53;;;-0.50;73.40;;;;;;5127827;27;20087;-70
2021/12/25 14:17:16;;;;;;;6.40;3.00;;;-0.50;73.30;;;;;;5116649;27;20733;-71
2021/12/25 14:19:42;;;;;;;5.57;1.83;;;-0.50;73.50;;;;;;5106120;28;20047;-71